sensor_id;sensor_type;location;lat;lon;timestamp;temperature;humidity
64654;DHT22;51065;48.884;12.598;2022-08-19T00:01:45;19.70;99.90
64654;DHT22;51065;48.884;12.598;2022-08-19T00:04:14;19.70;99.90
64654;DHT22;51065;48.884;12.598;2022-08-19T00:06:41;19.70;99.90
64654;DHT22;51065;48.884;12.598;2022-08-19T00:09:10;19.80;99.90
64654;DHT22;51065;48.884;12.598;2022-08-19T00:11:36;19.80;99.90
64654;DHT22;51065;48.884;12.598;2022-08-19T00:14:04;19.90;99.90
64654;DHT22;51065;48.884;12.598;2022-08-19T00:16:31;20.00;99.90
64654;DHT22;51065;48.884;12.598;2022-08-19T00:18:57;19.90;99.90
64654;DHT22;51065;48.884;12.598;2022-08-19T00:21:24;20.00;99.90
64654;DHT22;51065;48.884;12.598;2022-08-19T00:23:50;20.00;99.90
64654;DHT22;51065;48.884;12.598;2022-08-19T00:26:15;20.00;99.90
64654;DHT22;51065;48.884;12.598;2022-08-19T00:28:41;20.00;99.90
64654;DHT22;51065;48.884;12.598;2022-08-19T00:31:08;20.10;99.90
64654;DHT22;51065;48.884;12.598;2022-08-19T00:33:34;20.10;99.90
64654;DHT22;51065;48.884;12.598;2022-08-19T00:36:06;20.20;99.90
64654;DHT22;51065;48.884;12.598;2022-08-19T00:38:34;20.20;99.90
64654;DHT22;51065;48.884;12.598;2022-08-19T00:40:59;20.20;99.90
64654;DHT22;51065;48.884;12.598;2022-08-19T00:43:27;20.20;99.90
64654;DHT22;51065;48.884;12.598;2022-08-19T00:45:53;20.20;99.90
64654;DHT22;51065;48.884;12.598;2022-08-19T00:48:19;20.20;99.90
64654;DHT22;51065;48.884;12.598;2022-08-19T00:50:48;20.30;99.90
64654;DHT22;51065;48.884;12.598;2022-08-19T00:53:16;20.20;99.90
64654;DHT22;51065;48.884;12.598;2022-08-19T00:55:49;20.30;99.90
64654;DHT22;51065;48.884;12.598;2022-08-19T00:58:17;20.30;99.90
64654;DHT22;51065;48.884;12.598;2022-08-19T01:00:44;20.30;99.90
64654;DHT22;51065;48.884;12.598;2022-08-19T01:03:13;20.40;99.90
64654;DHT22;51065;48.884;12.598;2022-08-19T01:05:42;20.40;99.90
64654;DHT22;51065;48.884;12.598;2022-08-19T01:08:08;20.40;99.90
64654;DHT22;51065;48.884;12.598;2022-08-19T01:10:43;20.40;99.90
64654;DHT22;51065;48.884;12.598;2022-08-19T01:13:11;20.40;99.90
64654;DHT22;51065;48.884;12.598;2022-08-19T01:15:45;20.40;99.90
64654;DHT22;51065;48.884;12.598;2022-08-19T01:18:13;20.30;99.90
64654;DHT22;51065;48.884;12.598;2022-08-19T01:20:41;20.20;99.90
64654;DHT22;51065;48.884;12.598;2022-08-19T01:23:07;20.20;99.90
64654;DHT22;51065;48.884;12.598;2022-08-19T01:25:39;20.20;99.90
64654;DHT22;51065;48.884;12.598;2022-08-19T01:28:07;20.30;99.90
64654;DHT22;51065;48.884;12.598;2022-08-19T01:30:35;20.20;99.90
64654;DHT22;51065;48.884;12.598;2022-08-19T01:33:01;20.20;99.90
64654;DHT22;51065;48.884;12.598;2022-08-19T01:35:29;20.20;99.90
64654;DHT22;51065;48.884;12.598;2022-08-19T01:38:02;20.20;99.90
64654;DHT22;51065;48.884;12.598;2022-08-19T01:40:33;20.20;99.90
64654;DHT22;51065;48.884;12.598;2022-08-19T01:42:59;20.30;99.90
64654;DHT22;51065;48.884;12.598;2022-08-19T01:45:27;20.30;99.90
64654;DHT22;51065;48.884;12.598;2022-08-19T01:47:53;20.30;99.90
64654;DHT22;51065;48.884;12.598;2022-08-19T01:50:19;20.30;99.90
64654;DHT22;51065;48.884;12.598;2022-08-19T01:52:45;20.30;99.90
64654;DHT22;51065;48.884;12.598;2022-08-19T01:55:16;20.30;99.90
64654;DHT22;51065;48.884;12.598;2022-08-19T01:57:44;20.30;99.90
64654;DHT22;51065;48.884;12.598;2022-08-19T02:00:13;20.30;99.90
64654;DHT22;51065;48.884;12.598;2022-08-19T02:02:41;20.30;99.90
64654;DHT22;51065;48.884;12.598;2022-08-19T02:05:07;20.30;99.90
64654;DHT22;51065;48.884;12.598;2022-08-19T02:07:35;20.30;99.90
64654;DHT22;51065;48.884;12.598;2022-08-19T02:10:06;20.30;99.90
64654;DHT22;51065;48.884;12.598;2022-08-19T02:12:32;20.30;99.90
64654;DHT22;51065;48.884;12.598;2022-08-19T02:14:58;20.40;99.90
64654;DHT22;51065;48.884;12.598;2022-08-19T02:17:24;20.40;99.90
64654;DHT22;51065;48.884;12.598;2022-08-19T02:19:49;20.40;99.90
64654;DHT22;51065;48.884;12.598;2022-08-19T02:22:15;20.30;99.90
64654;DHT22;51065;48.884;12.598;2022-08-19T02:24:40;20.30;99.90
64654;DHT22;51065;48.884;12.598;2022-08-19T02:27:06;20.40;99.90
64654;DHT22;51065;48.884;12.598;2022-08-19T02:29:32;20.40;99.90
64654;DHT22;51065;48.884;12.598;2022-08-19T02:31:57;20.30;99.90
64654;DHT22;51065;48.884;12.598;2022-08-19T02:34:23;20.30;99.90
64654;DHT22;51065;48.884;12.598;2022-08-19T02:36:50;20.30;99.90
64654;DHT22;51065;48.884;12.598;2022-08-19T02:39:16;20.30;99.90
64654;DHT22;51065;48.884;12.598;2022-08-19T02:41:42;20.30;99.90
64654;DHT22;51065;48.884;12.598;2022-08-19T02:44:07;20.30;99.90
64654;DHT22;51065;48.884;12.598;2022-08-19T02:46:33;20.30;99.90
64654;DHT22;51065;48.884;12.598;2022-08-19T02:49:03;20.30;99.90
64654;DHT22;51065;48.884;12.598;2022-08-19T02:51:33;20.30;99.90
64654;DHT22;51065;48.884;12.598;2022-08-19T02:53:59;20.30;99.90
64654;DHT22;51065;48.884;12.598;2022-08-19T02:56:26;20.30;99.90
64654;DHT22;51065;48.884;12.598;2022-08-19T02:58:53;20.20;99.90
64654;DHT22;51065;48.884;12.598;2022-08-19T03:01:24;20.30;99.90
64654;DHT22;51065;48.884;12.598;2022-08-19T03:03:50;20.30;99.90
64654;DHT22;51065;48.884;12.598;2022-08-19T03:06:16;20.30;99.90
64654;DHT22;51065;48.884;12.598;2022-08-19T03:08:44;20.30;99.90
64654;DHT22;51065;48.884;12.598;2022-08-19T03:11:18;20.30;99.90
64654;DHT22;51065;48.884;12.598;2022-08-19T03:13:44;20.30;99.90
64654;DHT22;51065;48.884;12.598;2022-08-19T03:16:12;20.30;99.90
64654;DHT22;51065;48.884;12.598;2022-08-19T03:18:38;20.20;99.90
64654;DHT22;51065;48.884;12.598;2022-08-19T03:21:04;20.20;99.90
64654;DHT22;51065;48.884;12.598;2022-08-19T03:23:30;20.30;99.90
64654;DHT22;51065;48.884;12.598;2022-08-19T03:25:56;20.20;99.90
64654;DHT22;51065;48.884;12.598;2022-08-19T03:28:21;20.20;99.90
64654;DHT22;51065;48.884;12.598;2022-08-19T03:31:06;20.20;99.90
64654;DHT22;51065;48.884;12.598;2022-08-19T03:33:34;20.20;99.90
64654;DHT22;51065;48.884;12.598;2022-08-19T03:38:31;20.20;99.90
64654;DHT22;51065;48.884;12.598;2022-08-19T03:40:57;20.20;99.90
64654;DHT22;51065;48.884;12.598;2022-08-19T03:43:23;20.20;99.90
64654;DHT22;51065;48.884;12.598;2022-08-19T03:45:49;20.20;99.90
64654;DHT22;51065;48.884;12.598;2022-08-19T03:48:14;20.20;99.90
64654;DHT22;51065;48.884;12.598;2022-08-19T03:50:42;20.20;99.90
64654;DHT22;51065;48.884;12.598;2022-08-19T03:53:08;20.20;99.90
64654;DHT22;51065;48.884;12.598;2022-08-19T03:55:38;20.20;99.90
64654;DHT22;51065;48.884;12.598;2022-08-19T03:58:04;20.20;99.90
64654;DHT22;51065;48.884;12.598;2022-08-19T04:00:29;20.20;99.90
64654;DHT22;51065;48.884;12.598;2022-08-19T04:02:55;20.20;99.90
64654;DHT22;51065;48.884;12.598;2022-08-19T04:05:20;20.20;99.90
64654;DHT22;51065;48.884;12.598;2022-08-19T04:07:46;20.20;99.90
64654;DHT22;51065;48.884;12.598;2022-08-19T04:10:11;20.20;99.90
64654;DHT22;51065;48.884;12.598;2022-08-19T04:12:37;20.20;99.90
64654;DHT22;51065;48.884;12.598;2022-08-19T04:15:03;20.30;99.90
64654;DHT22;51065;48.884;12.598;2022-08-19T04:17:29;20.30;99.90
64654;DHT22;51065;48.884;12.598;2022-08-19T04:19:55;20.30;99.90
64654;DHT22;51065;48.884;12.598;2022-08-19T04:22:21;20.30;99.90
64654;DHT22;51065;48.884;12.598;2022-08-19T04:24:46;20.30;99.90
64654;DHT22;51065;48.884;12.598;2022-08-19T04:27:12;20.30;99.90
64654;DHT22;51065;48.884;12.598;2022-08-19T04:29:37;20.30;99.90
64654;DHT22;51065;48.884;12.598;2022-08-19T04:32:04;20.20;99.90
64654;DHT22;51065;48.884;12.598;2022-08-19T04:34:31;20.30;99.90
64654;DHT22;51065;48.884;12.598;2022-08-19T04:36:58;20.30;99.90
64654;DHT22;51065;48.884;12.598;2022-08-19T04:39:28;20.30;99.90
64654;DHT22;51065;48.884;12.598;2022-08-19T04:42:12;20.30;99.90
64654;DHT22;51065;48.884;12.598;2022-08-19T04:44:57;20.20;99.90
64654;DHT22;51065;48.884;12.598;2022-08-19T04:47:24;20.20;99.90
64654;DHT22;51065;48.884;12.598;2022-08-19T04:49:49;20.20;99.90
64654;DHT22;51065;48.884;12.598;2022-08-19T04:52:15;20.20;99.90
64654;DHT22;51065;48.884;12.598;2022-08-19T04:54:40;20.20;99.90
64654;DHT22;51065;48.884;12.598;2022-08-19T04:57:07;20.20;99.90
64654;DHT22;51065;48.884;12.598;2022-08-19T04:59:35;20.20;99.90
64654;DHT22;51065;48.884;12.598;2022-08-19T05:02:02;20.20;99.90
64654;DHT22;51065;48.884;12.598;2022-08-19T05:04:28;20.30;99.90
64654;DHT22;51065;48.884;12.598;2022-08-19T05:06:57;20.30;99.90
64654;DHT22;51065;48.884;12.598;2022-08-19T05:09:22;20.40;99.90
64654;DHT22;51065;48.884;12.598;2022-08-19T05:11:48;20.50;99.90
64654;DHT22;51065;48.884;12.598;2022-08-19T05:14:14;20.60;99.90
64654;DHT22;51065;48.884;12.598;2022-08-19T05:16:40;20.70;99.90
64654;DHT22;51065;48.884;12.598;2022-08-19T05:19:06;20.80;99.90
64654;DHT22;51065;48.884;12.598;2022-08-19T05:21:50;20.90;99.90
64654;DHT22;51065;48.884;12.598;2022-08-19T05:24:34;21.00;99.90
64654;DHT22;51065;48.884;12.598;2022-08-19T05:27:01;21.10;99.90
64654;DHT22;51065;48.884;12.598;2022-08-19T05:29:29;21.10;99.90
64654;DHT22;51065;48.884;12.598;2022-08-19T05:31:56;21.10;99.90
64654;DHT22;51065;48.884;12.598;2022-08-19T05:34:23;21.10;99.90
64654;DHT22;51065;48.884;12.598;2022-08-19T05:36:55;21.10;99.90
64654;DHT22;51065;48.884;12.598;2022-08-19T05:39:24;21.10;99.90
64654;DHT22;51065;48.884;12.598;2022-08-19T05:41:53;21.10;99.90
64654;DHT22;51065;48.884;12.598;2022-08-19T05:44:20;21.10;99.90
64654;DHT22;51065;48.884;12.598;2022-08-19T05:46:47;21.10;99.90
64654;DHT22;51065;48.884;12.598;2022-08-19T05:49:15;21.10;99.90
64654;DHT22;51065;48.884;12.598;2022-08-19T05:51:41;21.10;99.90
64654;DHT22;51065;48.884;12.598;2022-08-19T05:54:07;21.10;99.90
64654;DHT22;51065;48.884;12.598;2022-08-19T05:56:34;20.90;99.90
64654;DHT22;51065;48.884;12.598;2022-08-19T05:59:04;20.90;99.90
64654;DHT22;51065;48.884;12.598;2022-08-19T06:01:34;20.80;99.90
64654;DHT22;51065;48.884;12.598;2022-08-19T06:04:00;20.90;99.90
64654;DHT22;51065;48.884;12.598;2022-08-19T06:06:25;20.80;99.90
64654;DHT22;51065;48.884;12.598;2022-08-19T06:08:51;20.80;99.90
64654;DHT22;51065;48.884;12.598;2022-08-19T06:11:23;20.80;99.90
64654;DHT22;51065;48.884;12.598;2022-08-19T06:13:51;20.80;99.90
64654;DHT22;51065;48.884;12.598;2022-08-19T06:16:19;20.70;99.90
64654;DHT22;51065;48.884;12.598;2022-08-19T06:18:49;20.60;99.90
64654;DHT22;51065;48.884;12.598;2022-08-19T06:21:20;20.60;99.90
64654;DHT22;51065;48.884;12.598;2022-08-19T06:23:47;20.60;99.90
64654;DHT22;51065;48.884;12.598;2022-08-19T06:26:13;20.60;99.90
64654;DHT22;51065;48.884;12.598;2022-08-19T06:28:39;20.50;99.90
64654;DHT22;51065;48.884;12.598;2022-08-19T06:33:42;20.60;99.90
64654;DHT22;51065;48.884;12.598;2022-08-19T06:36:15;20.60;99.90
64654;DHT22;51065;48.884;12.598;2022-08-19T06:38:41;20.60;99.90
64654;DHT22;51065;48.884;12.598;2022-08-19T06:41:06;20.60;99.90
64654;DHT22;51065;48.884;12.598;2022-08-19T06:43:33;20.70;99.90
64654;DHT22;51065;48.884;12.598;2022-08-19T06:45:59;20.70;99.90
64654;DHT22;51065;48.884;12.598;2022-08-19T06:48:26;20.70;99.90
64654;DHT22;51065;48.884;12.598;2022-08-19T06:50:51;20.80;99.90
64654;DHT22;51065;48.884;12.598;2022-08-19T06:53:17;20.90;99.90
64654;DHT22;51065;48.884;12.598;2022-08-19T06:55:44;20.90;99.90
64654;DHT22;51065;48.884;12.598;2022-08-19T06:58:10;20.90;99.90
64654;DHT22;51065;48.884;12.598;2022-08-19T07:00:36;20.90;99.90
64654;DHT22;51065;48.884;12.598;2022-08-19T07:03:02;20.90;99.90
64654;DHT22;51065;48.884;12.598;2022-08-19T07:05:27;20.80;99.90
64654;DHT22;51065;48.884;12.598;2022-08-19T07:07:53;20.80;99.90
64654;DHT22;51065;48.884;12.598;2022-08-19T07:10:19;20.80;99.90
64654;DHT22;51065;48.884;12.598;2022-08-19T07:12:45;20.80;99.90
64654;DHT22;51065;48.884;12.598;2022-08-19T07:15:11;20.80;99.90
64654;DHT22;51065;48.884;12.598;2022-08-19T07:17:37;20.90;99.90
64654;DHT22;51065;48.884;12.598;2022-08-19T07:20:06;20.90;99.90
64654;DHT22;51065;48.884;12.598;2022-08-19T07:22:33;20.90;99.90
64654;DHT22;51065;48.884;12.598;2022-08-19T07:24:59;20.90;99.90
64654;DHT22;51065;48.884;12.598;2022-08-19T07:27:25;20.90;99.90
64654;DHT22;51065;48.884;12.598;2022-08-19T07:29:52;20.90;99.90
64654;DHT22;51065;48.884;12.598;2022-08-19T07:32:17;20.90;99.90
64654;DHT22;51065;48.884;12.598;2022-08-19T07:34:43;21.00;99.90
64654;DHT22;51065;48.884;12.598;2022-08-19T07:37:10;21.00;99.90
64654;DHT22;51065;48.884;12.598;2022-08-19T07:39:37;21.10;99.90
64654;DHT22;51065;48.884;12.598;2022-08-19T07:42:07;21.10;99.90
64654;DHT22;51065;48.884;12.598;2022-08-19T07:44:33;21.10;99.90
64654;DHT22;51065;48.884;12.598;2022-08-19T07:47:00;21.20;99.90
64654;DHT22;51065;48.884;12.598;2022-08-19T07:49:27;21.20;99.90
64654;DHT22;51065;48.884;12.598;2022-08-19T07:52:01;21.20;99.90
64654;DHT22;51065;48.884;12.598;2022-08-19T07:54:30;21.20;99.90
64654;DHT22;51065;48.884;12.598;2022-08-19T07:56:57;21.10;99.90
64654;DHT22;51065;48.884;12.598;2022-08-19T07:59:24;21.10;99.90
64654;DHT22;51065;48.884;12.598;2022-08-19T08:01:49;21.10;99.90
64654;DHT22;51065;48.884;12.598;2022-08-19T08:04:16;21.10;99.90
64654;DHT22;51065;48.884;12.598;2022-08-19T08:07:01;21.00;99.90
64654;DHT22;51065;48.884;12.598;2022-08-19T08:09:45;21.10;99.90
64654;DHT22;51065;48.884;12.598;2022-08-19T08:12:23;21.10;99.90
64654;DHT22;51065;48.884;12.598;2022-08-19T08:14:58;21.10;99.90
64654;DHT22;51065;48.884;12.598;2022-08-19T08:17:28;21.20;99.90
64654;DHT22;51065;48.884;12.598;2022-08-19T08:19:54;21.30;99.90
64654;DHT22;51065;48.884;12.598;2022-08-19T08:22:21;21.30;99.90
64654;DHT22;51065;48.884;12.598;2022-08-19T08:25:07;21.40;99.90
64654;DHT22;51065;48.884;12.598;2022-08-19T08:27:37;21.50;99.90
64654;DHT22;51065;48.884;12.598;2022-08-19T08:30:10;21.50;99.90
64654;DHT22;51065;48.884;12.598;2022-08-19T08:32:37;21.60;99.90
64654;DHT22;51065;48.884;12.598;2022-08-19T08:35:05;21.70;99.90
64654;DHT22;51065;48.884;12.598;2022-08-19T08:37:31;21.90;99.90
64654;DHT22;51065;48.884;12.598;2022-08-19T08:39:56;22.20;99.90
64654;DHT22;51065;48.884;12.598;2022-08-19T08:42:34;22.40;99.90
64654;DHT22;51065;48.884;12.598;2022-08-19T08:45:04;22.70;99.90
64654;DHT22;51065;48.884;12.598;2022-08-19T08:47:34;23.20;99.90
64654;DHT22;51065;48.884;12.598;2022-08-19T08:50:06;23.50;99.90
64654;DHT22;51065;48.884;12.598;2022-08-19T08:52:36;23.80;99.90
64654;DHT22;51065;48.884;12.598;2022-08-19T08:55:10;23.90;99.90
64654;DHT22;51065;48.884;12.598;2022-08-19T08:58:04;24.10;99.90
64654;DHT22;51065;48.884;12.598;2022-08-19T09:00:37;24.40;99.90
64654;DHT22;51065;48.884;12.598;2022-08-19T09:03:09;24.50;99.90
64654;DHT22;51065;48.884;12.598;2022-08-19T09:08:26;24.50;99.90
64654;DHT22;51065;48.884;12.598;2022-08-19T09:10:55;24.50;99.90
64654;DHT22;51065;48.884;12.598;2022-08-19T09:16:20;24.40;99.90
64654;DHT22;51065;48.884;12.598;2022-08-19T09:18:55;24.20;99.90
64654;DHT22;51065;48.884;12.598;2022-08-19T09:21:23;23.90;99.90
64654;DHT22;51065;48.884;12.598;2022-08-19T09:23:50;23.60;99.90
64654;DHT22;51065;48.884;12.598;2022-08-19T09:26:18;23.60;99.90
64654;DHT22;51065;48.884;12.598;2022-08-19T09:28:45;23.60;99.90
64654;DHT22;51065;48.884;12.598;2022-08-19T09:31:13;23.60;99.90
64654;DHT22;51065;48.884;12.598;2022-08-19T09:33:39;23.70;99.90
64654;DHT22;51065;48.884;12.598;2022-08-19T09:36:08;23.70;99.90
64654;DHT22;51065;48.884;12.598;2022-08-19T09:38:35;23.80;99.90
64654;DHT22;51065;48.884;12.598;2022-08-19T09:41:05;23.70;99.90
64654;DHT22;51065;48.884;12.598;2022-08-19T09:43:32;23.70;99.90
64654;DHT22;51065;48.884;12.598;2022-08-19T09:46:03;23.70;99.90
64654;DHT22;51065;48.884;12.598;2022-08-19T09:48:31;23.60;99.90
64654;DHT22;51065;48.884;12.598;2022-08-19T09:51:06;23.30;99.90
64654;DHT22;51065;48.884;12.598;2022-08-19T09:53:36;23.40;99.90
64654;DHT22;51065;48.884;12.598;2022-08-19T09:56:03;23.30;99.90
64654;DHT22;51065;48.884;12.598;2022-08-19T09:58:29;23.20;99.90
64654;DHT22;51065;48.884;12.598;2022-08-19T10:00:57;23.30;99.90
64654;DHT22;51065;48.884;12.598;2022-08-19T10:03:24;23.50;99.90
64654;DHT22;51065;48.884;12.598;2022-08-19T10:05:49;23.80;99.90
64654;DHT22;51065;48.884;12.598;2022-08-19T10:08:21;24.00;99.90
64654;DHT22;51065;48.884;12.598;2022-08-19T10:10:48;24.10;99.90
64654;DHT22;51065;48.884;12.598;2022-08-19T10:13:16;24.10;99.90
64654;DHT22;51065;48.884;12.598;2022-08-19T10:15:43;24.00;99.90
64654;DHT22;51065;48.884;12.598;2022-08-19T10:18:09;24.00;99.90
64654;DHT22;51065;48.884;12.598;2022-08-19T10:20:35;23.90;99.90
64654;DHT22;51065;48.884;12.598;2022-08-19T10:23:03;24.00;99.90
64654;DHT22;51065;48.884;12.598;2022-08-19T10:25:29;24.20;99.90
64654;DHT22;51065;48.884;12.598;2022-08-19T10:27:55;24.40;99.90
64654;DHT22;51065;48.884;12.598;2022-08-19T10:30:20;24.30;99.40
64654;DHT22;51065;48.884;12.598;2022-08-19T10:32:46;24.40;99.00
64654;DHT22;51065;48.884;12.598;2022-08-19T10:35:13;24.10;99.30
64654;DHT22;51065;48.884;12.598;2022-08-19T10:37:39;23.70;99.90
64654;DHT22;51065;48.884;12.598;2022-08-19T10:40:06;23.80;99.90
64654;DHT22;51065;48.884;12.598;2022-08-19T10:42:33;24.10;99.90
64654;DHT22;51065;48.884;12.598;2022-08-19T10:44:59;24.20;99.70
64654;DHT22;51065;48.884;12.598;2022-08-19T10:47:25;24.50;99.70
64654;DHT22;51065;48.884;12.598;2022-08-19T10:49:54;24.90;99.40
64654;DHT22;51065;48.884;12.598;2022-08-19T10:52:40;25.30;97.60
64654;DHT22;51065;48.884;12.598;2022-08-19T10:55:06;25.90;96.60
64654;DHT22;51065;48.884;12.598;2022-08-19T10:57:51;26.00;95.60
64654;DHT22;51065;48.884;12.598;2022-08-19T11:00:19;26.30;95.20
64654;DHT22;51065;48.884;12.598;2022-08-19T11:02:45;26.60;94.70
64654;DHT22;51065;48.884;12.598;2022-08-19T11:05:12;26.80;92.90
64654;DHT22;51065;48.884;12.598;2022-08-19T11:07:39;26.70;92.10
64654;DHT22;51065;48.884;12.598;2022-08-19T11:10:09;26.70;92.40
64654;DHT22;51065;48.884;12.598;2022-08-19T11:12:39;26.90;91.80
64654;DHT22;51065;48.884;12.598;2022-08-19T11:15:06;27.00;91.00
64654;DHT22;51065;48.884;12.598;2022-08-19T11:17:36;27.50;90.10
64654;DHT22;51065;48.884;12.598;2022-08-19T11:20:03;27.80;90.40
64654;DHT22;51065;48.884;12.598;2022-08-19T11:22:30;27.90;88.40
64654;DHT22;51065;48.884;12.598;2022-08-19T11:24:56;27.90;84.60
64654;DHT22;51065;48.884;12.598;2022-08-19T11:27:21;28.00;86.40
64654;DHT22;51065;48.884;12.598;2022-08-19T11:29:47;29.10;83.90
64654;DHT22;51065;48.884;12.598;2022-08-19T11:32:12;29.40;80.10
64654;DHT22;51065;48.884;12.598;2022-08-19T11:34:38;29.20;79.20
64654;DHT22;51065;48.884;12.598;2022-08-19T11:37:04;28.70;79.50
64654;DHT22;51065;48.884;12.598;2022-08-19T11:39:32;29.10;76.60
64654;DHT22;51065;48.884;12.598;2022-08-19T11:41:58;29.30;77.50
64654;DHT22;51065;48.884;12.598;2022-08-19T11:44:25;30.20;73.20
64654;DHT22;51065;48.884;12.598;2022-08-19T11:46:51;30.10;72.50
64654;DHT22;51065;48.884;12.598;2022-08-19T11:49:19;29.70;71.50
64654;DHT22;51065;48.884;12.598;2022-08-19T11:51:46;29.00;71.20
64654;DHT22;51065;48.884;12.598;2022-08-19T11:54:14;28.50;72.80
64654;DHT22;51065;48.884;12.598;2022-08-19T11:56:41;28.20;74.40
64654;DHT22;51065;48.884;12.598;2022-08-19T11:59:07;27.50;77.40
64654;DHT22;51065;48.884;12.598;2022-08-19T12:01:33;27.20;81.60
64654;DHT22;51065;48.884;12.598;2022-08-19T12:03:59;27.20;80.50
64654;DHT22;51065;48.884;12.598;2022-08-19T12:06:27;27.20;81.70
64654;DHT22;51065;48.884;12.598;2022-08-19T12:09:04;27.20;79.50
64654;DHT22;51065;48.884;12.598;2022-08-19T12:11:30;27.50;81.20
64654;DHT22;51065;48.884;12.598;2022-08-19T12:13:56;28.20;78.30
64654;DHT22;51065;48.884;12.598;2022-08-19T12:16:25;29.10;75.30
64654;DHT22;51065;48.884;12.598;2022-08-19T12:18:52;29.00;72.10
64654;DHT22;51065;48.884;12.598;2022-08-19T12:21:20;28.20;73.10
64654;DHT22;51065;48.884;12.598;2022-08-19T12:23:51;28.60;76.80
64654;DHT22;51065;48.884;12.598;2022-08-19T12:26:17;29.40;73.10
64654;DHT22;51065;48.884;12.598;2022-08-19T12:28:43;29.80;70.20
64654;DHT22;51065;48.884;12.598;2022-08-19T12:31:10;30.20;70.70
64654;DHT22;51065;48.884;12.598;2022-08-19T12:33:39;30.00;69.10
64654;DHT22;51065;48.884;12.598;2022-08-19T12:36:08;29.40;69.50
64654;DHT22;51065;48.884;12.598;2022-08-19T12:38:34;28.90;70.40
64654;DHT22;51065;48.884;12.598;2022-08-19T12:41:00;27.80;74.00
64654;DHT22;51065;48.884;12.598;2022-08-19T12:43:26;27.50;76.20
64654;DHT22;51065;48.884;12.598;2022-08-19T12:45:52;27.40;77.90
64654;DHT22;51065;48.884;12.598;2022-08-19T12:48:18;27.20;80.30
64654;DHT22;51065;48.884;12.598;2022-08-19T12:50:45;27.30;80.10
64654;DHT22;51065;48.884;12.598;2022-08-19T12:53:11;28.10;78.80
64654;DHT22;51065;48.884;12.598;2022-08-19T12:55:37;28.90;77.10
64654;DHT22;51065;48.884;12.598;2022-08-19T12:58:02;29.70;74.10
64654;DHT22;51065;48.884;12.598;2022-08-19T13:00:29;29.40;71.10
64654;DHT22;51065;48.884;12.598;2022-08-19T13:02:55;28.80;74.00
64654;DHT22;51065;48.884;12.598;2022-08-19T13:05:25;28.20;75.80
64654;DHT22;51065;48.884;12.598;2022-08-19T13:07:54;27.80;78.30
64654;DHT22;51065;48.884;12.598;2022-08-19T13:10:25;27.50;80.00
64654;DHT22;51065;48.884;12.598;2022-08-19T13:12:53;27.20;81.70
64654;DHT22;51065;48.884;12.598;2022-08-19T13:15:21;27.10;82.50
64654;DHT22;51065;48.884;12.598;2022-08-19T13:17:49;26.90;82.80
64654;DHT22;51065;48.884;12.598;2022-08-19T13:20:17;26.70;84.10
64654;DHT22;51065;48.884;12.598;2022-08-19T13:22:44;26.90;85.70
64654;DHT22;51065;48.884;12.598;2022-08-19T13:25:11;27.50;83.90
64654;DHT22;51065;48.884;12.598;2022-08-19T13:27:38;28.20;81.70
64654;DHT22;51065;48.884;12.598;2022-08-19T13:30:05;28.20;78.00
64654;DHT22;51065;48.884;12.598;2022-08-19T13:32:49;27.90;78.50
64654;DHT22;51065;48.884;12.598;2022-08-19T13:35:34;27.90;78.90
64654;DHT22;51065;48.884;12.598;2022-08-19T13:37:59;27.60;80.20
64654;DHT22;51065;48.884;12.598;2022-08-19T13:40:26;27.80;80.90
64654;DHT22;51065;48.884;12.598;2022-08-19T13:42:54;27.70;78.70
64654;DHT22;51065;48.884;12.598;2022-08-19T13:45:22;27.90;79.50
64654;DHT22;51065;48.884;12.598;2022-08-19T13:47:51;27.70;77.90
64654;DHT22;51065;48.884;12.598;2022-08-19T13:50:21;27.20;80.40
64654;DHT22;51065;48.884;12.598;2022-08-19T13:52:47;27.20;82.80
64654;DHT22;51065;48.884;12.598;2022-08-19T13:55:14;27.30;81.40
64654;DHT22;51065;48.884;12.598;2022-08-19T13:57:40;26.90;83.30
64654;DHT22;51065;48.884;12.598;2022-08-19T14:00:09;26.80;84.40
64654;DHT22;51065;48.884;12.598;2022-08-19T14:02:36;26.60;86.00
64654;DHT22;51065;48.884;12.598;2022-08-19T14:05:04;26.60;86.60
64654;DHT22;51065;48.884;12.598;2022-08-19T14:07:30;26.80;85.10
64654;DHT22;51065;48.884;12.598;2022-08-19T14:09:56;27.20;85.30
64654;DHT22;51065;48.884;12.598;2022-08-19T14:12:21;27.90;82.90
64654;DHT22;51065;48.884;12.598;2022-08-19T14:14:47;28.30;80.70
64654;DHT22;51065;48.884;12.598;2022-08-19T14:17:13;28.50;78.10
64654;DHT22;51065;48.884;12.598;2022-08-19T14:19:38;28.40;80.10
64654;DHT22;51065;48.884;12.598;2022-08-19T14:22:04;28.20;78.50
64654;DHT22;51065;48.884;12.598;2022-08-19T14:24:30;27.70;80.10
64654;DHT22;51065;48.884;12.598;2022-08-19T14:26:58;27.20;81.70
64654;DHT22;51065;48.884;12.598;2022-08-19T14:29:24;27.00;82.60
64654;DHT22;51065;48.884;12.598;2022-08-19T14:31:49;26.60;84.00
64654;DHT22;51065;48.884;12.598;2022-08-19T14:34:15;26.40;85.70
64654;DHT22;51065;48.884;12.598;2022-08-19T14:36:41;26.00;86.40
64654;DHT22;51065;48.884;12.598;2022-08-19T14:39:08;25.80;89.20
64654;DHT22;51065;48.884;12.598;2022-08-19T14:41:34;25.70;90.20
64654;DHT22;51065;48.884;12.598;2022-08-19T14:44:00;25.80;90.50
64654;DHT22;51065;48.884;12.598;2022-08-19T14:46:28;25.70;90.50
64654;DHT22;51065;48.884;12.598;2022-08-19T14:48:54;25.70;91.00
64654;DHT22;51065;48.884;12.598;2022-08-19T14:51:23;25.70;90.80
64654;DHT22;51065;48.884;12.598;2022-08-19T14:53:49;25.70;91.10
64654;DHT22;51065;48.884;12.598;2022-08-19T14:56:18;25.90;91.70
64654;DHT22;51065;48.884;12.598;2022-08-19T14:58:45;26.10;91.30
64654;DHT22;51065;48.884;12.598;2022-08-19T15:01:11;26.40;90.10
64654;DHT22;51065;48.884;12.598;2022-08-19T15:03:38;26.50;87.50
64654;DHT22;51065;48.884;12.598;2022-08-19T15:06:05;26.60;85.70
64654;DHT22;51065;48.884;12.598;2022-08-19T15:08:33;26.90;85.30
64654;DHT22;51065;48.884;12.598;2022-08-19T15:11:00;26.90;85.50
64654;DHT22;51065;48.884;12.598;2022-08-19T15:13:28;27.00;87.10
64654;DHT22;51065;48.884;12.598;2022-08-19T15:15:54;27.00;87.20
64654;DHT22;51065;48.884;12.598;2022-08-19T15:18:20;26.70;88.20
64654;DHT22;51065;48.884;12.598;2022-08-19T15:20:47;26.70;89.30
64654;DHT22;51065;48.884;12.598;2022-08-19T15:23:14;26.60;89.20
64654;DHT22;51065;48.884;12.598;2022-08-19T15:25:40;26.40;89.90
64654;DHT22;51065;48.884;12.598;2022-08-19T15:28:07;26.30;90.20
64654;DHT22;51065;48.884;12.598;2022-08-19T15:30:36;26.30;90.20